KHGR/HGR METAR and TAF weather

Enter ICAO airport designator
Station Type Date Time Source
KHGR METAR 2020/01/23 17:53 UTC NOAA

KHGR 231753Z 27003KT 10SM CLR 02/M07 A3033 RMK AO2 SLP289 T00171072 10017 21067 58019


Station Type Date Time Source
KHGR Decoded METAR 2020/01/23 17:53 UTC NOAA

HAGERSTOWN REGIONAL AIRPORT, MD, United States (KHGR) 39-42N 077-44W 224M
Jan 23, 2020 - 12:53 PM EST / 2020.01.23 1753 UTC
Wind: from the W (270 degrees) at 3 MPH (3 KT):0
Visibility: 10 mile(s):0
Sky conditions: clear
Temperature: 35.1 F (1.7 C)
Dew Point: 19.0 F (-7.2 C)
Relative Humidity: 51%
Pressure (altimeter): 30.33 in. Hg (1027 hPa)
Pressure tendency: 0.06 inches (1.9 hPa) lower than three hours ago
ob: KHGR 231753Z 27003KT 10SM CLR 02/M07 A3033 RMK AO2 SLP289 T00171072 10017 21067 58019
cycle: 18

Station Type Date Time Source
KHGR TAF UTC NOAA

Error!

Example: see airport list